Time;durP1;ratioP1;P1;durP2;ratioP2;P2;SDS_P1;SDS_P2;PMS_P1;PMS_P2;Temp;Humidity;BMP_temperature;BMP_pressure;BME280_temperature;BME280_humidity;BME280_pressure;Samples;Min_cycle;Max_cycle;Signal;HPM_P1;HPM_P2
2022/09/01 00:01:41;;;;;;;5.95;1.80;;;;;;;16.35;53.91;101959.38;5049582;28;20051;-84
2022/09/01 00:04:08;;;;;;;;;;;;;;;16.43;53.60;101956.97;5051760;28;20027;-83
2022/09/01 00:06:35;;;;;;;2.22;1.50;;;;;;;16.27;54.14;101960.84;5050946;28;19962;-83
2022/09/01 00:09:05;;;;;;;5.38;1.50;;;;;;;16.28;54.08;101951.91;5049124;28;20027;-84
2022/09/01 00:11:32;;;;;;;3.67;1.23;;;;;;;16.23;54.42;101951.44;5049040;28;20074;-84
2022/09/01 00:14:00;;;;;;;6.03;1.30;;;;;;;16.23;54.68;101950.59;5048116;28;20068;-84
2022/09/01 00:16:27;;;;;;;3.10;1.52;;;;;;;16.20;54.97;101945.53;5049518;28;20025;-84
2022/09/01 00:18:54;;;;;;;4.20;1.50;;;;;;;16.18;55.44;101940.34;5048283;28;20105;-85
2022/09/01 00:21:23;;;;;;;5.88;1.48;;;;;;;16.16;55.43;101954.72;5049648;28;20039;-84
2022/09/01 00:23:49;;;;;;;5.70;1.40;;;;;;;16.15;55.55;101942.41;5049325;28;20013;-84
2022/09/01 00:26:15;;;;;;;3.72;1.60;;;;;;;16.10;55.82;101948.09;5047612;28;20025;-84
2022/09/01 00:28:40;;;;;;;4.45;1.42;;;;;;;16.08;56.25;101952.69;5050059;28;20028;-84
2022/09/01 00:31:07;;;;;;;4.18;1.50;;;;;;;16.06;56.19;101959.94;5047572;28;20036;-84
2022/09/01 00:33:36;;;;;;;6.65;1.75;;;;;;;16.03;56.95;101959.31;5049236;28;20060;-85
2022/09/01 00:36:04;;;;;;;4.57;1.55;;;;;;;15.99;57.27;101953.38;5080796;28;20041;-84
2022/09/01 00:38:30;;;;;;;2.45;1.42;;;;;;;15.97;57.48;101955.31;5050021;28;20025;-84
2022/09/01 00:40:59;;;;;;;3.08;1.40;;;;;;;15.93;57.92;101953.88;5081358;28;20047;-84
2022/09/01 00:43:46;;;;;;;5.15;1.60;;;;;;;15.95;57.83;101958.09;5081377;28;20029;-84
2022/09/01 00:46:20;;;;;;;4.03;1.40;;;;;;;15.90;58.69;101949.66;5049934;28;20059;-84
2022/09/01 00:48:58;;;;;;;3.60;1.65;;;;;;;15.91;58.79;101947.84;5035378;28;20505;-85
2022/09/01 00:51:25;;;;;;;4.78;1.50;;;;;;;15.89;59.49;101949.78;5048807;28;20028;-84
2022/09/01 00:53:54;;;;;;;5.80;1.70;;;;;;;15.84;59.78;101951.94;5049266;28;20083;-85
2022/09/01 00:56:21;;;;;;;4.90;1.70;;;;;;;15.82;59.81;101951.22;5050300;28;20726;-84
2022/09/01 00:58:47;;;;;;;5.03;1.48;;;;;;;15.79;60.36;101951.47;5050112;28;20094;-84
2022/09/01 01:01:12;;;;;;;5.55;1.52;;;;;;;15.76;60.59;101951.72;5049965;28;20025;-85
2022/09/01 01:03:41;;;;;;;4.35;1.40;;;;;;;15.74;60.74;101945.69;5050482;28;20028;-84
2022/09/01 01:06:08;;;;;;;4.00;1.70;;;;;;;15.70;60.82;101958.34;5049210;28;20028;-84
2022/09/01 01:08:39;;;;;;;4.78;1.65;;;;;;;15.73;61.08;101949.31;5046313;28;20029;-84
2022/09/01 01:11:08;;;;;;;5.47;1.73;;;;;;;15.69;61.29;101947.84;5048972;28;20021;-84
2022/09/01 01:13:48;;;;;;;5.22;1.88;;;;;;;15.69;61.36;101939.91;5050327;28;20033;-84
2022/09/01 01:16:14;;;;;;;5.38;1.70;;;;;;;15.61;61.75;101928.06;5049138;28;20025;-83
2022/09/01 01:18:40;;;;;;;4.55;1.65;;;;;;;15.56;62.08;101938.13;5046537;28;20158;-83
2022/09/01 01:24:36;;;;;;;7.20;1.77;;;;;;;15.54;61.88;101952.50;5046876;28;20449;-84
2022/09/01 01:27:02;;;;;;;3.72;1.60;;;;;;;15.47;62.92;101940.66;5004365;28;20041;-84
2022/09/01 01:29:33;;;;;;;4.00;1.88;;;;;;;15.40;63.14;101940.28;5029429;28;20502;-78
2022/09/01 01:31:59;;;;;;;3.05;1.58;;;;;;;15.36;63.43;101945.00;5028888;28;20052;-83
2022/09/01 01:34:25;;;;;;;3.60;1.60;;;;;;;15.37;63.48;101937.88;5028588;28;20025;-84
2022/09/01 01:36:50;;;;;;;6.93;1.80;;;;;;;15.32;63.84;101943.53;5028859;28;20025;-84
2022/09/01 01:39:20;;;;;;;2.95;1.80;;;;;;;15.27;63.93;101937.75;5026134;28;20377;-84
2022/09/01 01:41:47;;;;;;;3.22;1.80;;;;;;;15.24;64.21;101951.25;5031783;28;20028;-84
2022/09/01 01:44:14;;;;;;;3.60;1.90;;;;;;;15.20;64.51;101944.44;5047373;28;20111;-83
2022/09/01 01:46:42;;;;;;;4.80;1.60;;;;;;;15.17;64.71;101943.84;5046306;28;20049;-84
2022/09/01 01:49:12;;;;;;;4.40;1.60;;;;;;;15.20;64.71;101951.56;5047746;28;20091;-83
2022/09/01 01:51:38;;;;;;;11.63;2.00;;;;;;;15.13;65.01;101958.28;5048539;28;20025;-84
2022/09/01 01:54:04;;;;;;;3.83;1.80;;;;;;;15.07;65.14;101945.50;5045303;28;20025;-83
2022/09/01 01:56:32;;;;;;;15.25;2.47;;;;;;;15.05;65.64;101949.13;5048414;28;20033;-83
2022/09/01 01:59:00;;;;;;;6.78;2.30;;;;;;;15.02;65.63;101952.00;5046668;28;20021;-83
2022/09/01 02:01:28;;;;;;;4.60;2.08;;;;;;;14.99;65.79;101956.69;5048063;28;20124;-84
2022/09/01 02:03:55;;;;;;;4.78;1.80;;;;;;;14.96;66.08;101957.75;5047215;28;20051;-83
2022/09/01 02:06:24;;;;;;;5.25;2.13;;;;;;;14.95;66.31;101955.22;5048631;28;20048;-83
2022/09/01 02:08:52;;;;;;;3.72;1.80;;;;;;;14.94;66.46;101948.25;5050817;28;20100;-77
2022/09/01 02:11:18;;;;;;;4.35;2.17;;;;;;;14.94;66.18;101954.38;5048594;28;20028;-77
2022/09/01 02:13:45;;;;;;;4.28;1.95;;;;;;;14.92;66.48;101948.34;5049348;28;20025;-84
2022/09/01 02:16:11;;;;;;;4.40;2.08;;;;;;;14.87;66.71;101950.50;5048346;28;20091;-84
2022/09/01 02:18:46;;;;;;;9.70;2.35;;;;;;;14.81;66.69;101956.28;5048044;28;20474;-83
2022/09/01 02:21:17;;;;;;;4.00;2.00;;;;;;;14.78;67.00;101948.53;5048669;28;20045;-84
2022/09/01 02:23:43;;;;;;;6.75;2.08;;;;;;;14.77;67.02;101946.81;5048007;28;20017;-83
2022/09/01 02:26:12;;;;;;;2.88;2.10;;;;;;;14.75;67.11;101956.69;5048629;28;20128;-83
2022/09/01 02:28:41;;;;;;;3.90;1.85;;;;;;;14.73;67.06;101950.66;5027380;28;20040;-84
2022/09/01 02:31:08;;;;;;;8.70;2.00;;;;;;;14.68;67.22;101948.34;5034597;28;20052;-83
2022/09/01 02:33:35;;;;;;;4.30;2.10;;;;;;;14.67;67.38;101951.13;5048559;28;20029;-84
2022/09/01 02:36:05;;;;;;;6.70;2.17;;;;;;;14.63;67.76;101954.97;5050327;28;20430;-84
2022/09/01 02:38:32;;;;;;;7.80;2.10;;;;;;;14.61;67.69;101946.28;5051589;28;20025;-84
2022/09/01 02:41:00;;;;;;;4.93;2.13;;;;;;;14.55;68.08;101946.72;5050619;28;20029;-84
2022/09/01 02:43:27;;;;;;;4.15;2.00;;;;;;;14.52;68.10;101946.97;5050997;28;20021;-84
2022/09/01 02:45:56;;;;;;;3.80;2.20;;;;;;;14.50;68.38;101946.22;5048676;28;20040;-84
2022/09/01 02:48:36;;;;;;;3.60;1.92;;;;;;;14.49;68.63;101945.38;5044817;28;20032;-84
2022/09/01 02:51:14;;;;;;;4.65;2.10;;;;;;;14.45;68.45;101946.56;5048834;28;20025;-84
2022/09/01 02:53:41;;;;;;;7.50;2.78;;;;;;;14.41;68.68;101939.78;5051630;28;20021;-84
2022/09/01 02:56:10;;;;;;;4.10;2.10;;;;;;;14.42;68.71;101946.75;5050980;28;20060;-84
2022/09/01 02:58:44;;;;;;;3.85;2.00;;;;;;;14.34;69.26;101934.03;5049627;28;20043;-84
2022/09/01 03:01:23;;;;;;;4.57;2.15;;;;;;;14.36;69.06;101932.13;5050997;28;20493;-84
2022/09/01 03:03:50;;;;;;;4.63;2.10;;;;;;;14.30;69.31;101940.53;5049699;28;20025;-84
2022/09/01 03:06:18;;;;;;;7.32;2.03;;;;;;;14.31;69.31;101933.44;5040454;28;20436;-84
2022/09/01 03:08:44;;;;;;;2.17;1.90;;;;;;;14.28;69.52;101928.34;5051493;28;20387;-84
2022/09/01 03:11:10;;;;;;;5.90;2.35;;;;;;;14.23;69.72;101928.69;5048720;28;20032;-83
2022/09/01 03:13:37;;;;;;;4.75;2.03;;;;;;;14.28;69.65;101933.66;5050242;28;20021;-84
2022/09/01 03:16:03;;;;;;;5.75;2.22;;;;;;;14.23;69.61;101936.63;5051388;28;20032;-84
2022/09/01 03:18:29;;;;;;;12.80;2.33;;;;;;;14.20;69.43;101926.25;5059145;28;20029;-84
2022/09/01 03:20:55;;;;;;;4.53;2.38;;;;;;;14.15;69.84;101932.84;5049662;28;20033;-84
2022/09/01 03:23:20;;;;;;;2.63;1.92;;;;;;;14.13;69.88;101937.41;5052344;28;20082;-84
2022/09/01 03:25:47;;;;;;;10.55;2.58;;;;;;;14.14;70.00;101932.00;5050309;28;20367;-84
2022/09/01 03:28:13;;;;;;;4.72;2.13;;;;;;;14.09;70.25;101932.34;5051776;28;20033;-83
2022/09/01 03:30:45;;;;;;;7.00;2.40;;;;;;;14.07;70.22;101936.06;5052330;28;20029;-84
2022/09/01 03:33:10;;;;;;;3.17;2.05;;;;;;;14.05;70.39;101937.97;5050887;28;20035;-83
2022/09/01 03:35:36;;;;;;;4.28;2.30;;;;;;;14.00;70.54;101934.75;5051727;28;20409;-83
2022/09/01 03:38:02;;;;;;;11.30;2.58;;;;;;;14.00;70.54;101937.41;5047032;28;20570;-83
2022/09/01 03:40:32;;;;;;;6.68;2.47;;;;;;;13.97;70.63;101937.63;5050329;28;20546;-83
2022/09/01 03:42:59;;;;;;;4.38;2.45;;;;;;;13.90;71.02;101933.72;5050274;28;20418;-83
2022/09/01 03:45:24;;;;;;;5.57;2.47;;;;;;;13.88;71.22;101936.50;5050442;28;20057;-84
2022/09/01 03:47:54;;;;;;;3.20;2.30;;;;;;;13.89;71.39;101932.88;5050193;28;20563;-83
2022/09/01 03:50:25;;;;;;;5.55;2.58;;;;;;;13.80;71.52;101928.25;5050571;28;20059;-83
2022/09/01 03:52:57;;;;;;;4.60;2.42;;;;;;;13.78;71.63;101931.00;5050159;28;20029;-84
2022/09/01 03:55:28;;;;;;;4.07;2.42;;;;;;;13.80;71.53;101936.19;5049051;28;20032;-84
2022/09/01 03:57:56;;;;;;;6.95;2.55;;;;;;;13.79;71.28;101931.84;5050207;28;20025;-84
2022/09/01 04:00:25;;;;;;;2.95;2.10;;;;;;;13.74;71.51;101929.53;5048510;28;20127;-84
2022/09/01 04:02:56;;;;;;;5.03;2.60;;;;;;;13.70;71.61;101922.75;5050793;28;20029;-84
2022/09/01 04:05:27;;;;;;;5.38;2.30;;;;;;;13.72;71.81;101931.44;5050139;28;20117;-84
2022/09/01 04:07:52;;;;;;;3.78;2.22;;;;;;;13.71;71.80;101928.91;5049366;28;20547;-84
2022/09/01 04:10:18;;;;;;;4.65;2.40;;;;;;;13.65;71.96;101924.88;5032359;28;20124;-84
2022/09/01 04:12:44;;;;;;;4.80;2.50;;;;;;;13.62;72.40;101924.25;5049001;28;20063;-84
2022/09/01 04:15:11;;;;;;;4.50;2.60;;;;;;;13.61;72.11;101923.41;5047139;28;20075;-84
2022/09/01 04:20:22;;;;;;;5.53;2.70;;;;;;;13.62;72.46;101930.41;5050021;28;20182;-85
2022/09/01 04:22:49;;;;;;;3.75;2.20;;;;;;;13.56;72.43;101928.16;5034869;28;20480;-84
2022/09/01 04:25:15;;;;;;;5.20;2.40;;;;;;;13.61;72.69;101928.69;5029586;28;20365;-85
2022/09/01 04:27:41;;;;;;;3.97;2.40;;;;;;;13.58;72.85;101923.59;5045006;28;20446;-84
2022/09/01 04:30:09;;;;;;;6.38;2.28;;;;;;;13.62;72.53;101934.84;5048568;28;20029;-85
2022/09/01 04:32:39;;;;;;;4.57;2.53;;;;;;;13.65;72.45;101935.47;5049591;28;20486;-84
2022/09/01 04:35:06;;;;;;;5.63;2.50;;;;;;;13.62;72.58;101930.41;5048495;28;20025;-85
2022/09/01 04:37:35;;;;;;;9.02;3.03;;;;;;;13.70;71.88;101930.69;5049924;28;20035;-84
2022/09/01 04:40:00;;;;;;;7.40;2.40;;;;;;;13.72;71.80;101936.72;5050256;28;20024;-84
2022/09/01 04:42:31;;;;;;;6.72;2.38;;;;;;;13.72;71.79;101931.44;5050392;28;20021;-84
2022/09/01 04:44:58;;;;;;;8.45;2.65;;;;;;;13.73;71.53;101938.41;5046064;28;20113;-83
2022/09/01 04:47:30;;;;;;;8.93;2.88;;;;;;;13.72;71.52;101936.72;5049776;28;20454;-84
2022/09/01 04:50:00;;;;;;;6.38;2.78;;;;;;;13.75;71.35;101935.66;5050058;28;20446;-84
2022/09/01 04:52:26;;;;;;;6.35;2.60;;;;;;;13.73;71.42;101930.47;5051356;28;20033;-84
2022/09/01 04:54:53;;;;;;;6.68;2.50;;;;;;;13.68;71.17;101929.13;5050330;28;20037;-83
2022/09/01 04:57:20;;;;;;;4.53;2.50;;;;;;;13.64;71.02;101932.94;5053942;28;20040;-83
2022/09/01 04:59:45;;;;;;;6.57;2.72;;;;;;;13.61;71.02;101938.41;5056226;28;20025;-83
2022/09/01 05:02:11;;;;;;;8.05;2.25;;;;;;;13.58;71.20;101938.63;5047156;28;20063;-84
2022/09/01 05:04:38;;;;;;;5.32;2.50;;;;;;;13.59;71.23;101935.88;5047711;28;20021;-84
2022/09/01 05:07:04;;;;;;;7.50;2.30;;;;;;;13.57;71.38;101940.41;5048222;28;20025;-84
2022/09/01 05:09:36;;;;;;;15.50;3.30;;;;;;;13.58;71.33;101941.25;5047886;28;20059;-84
2022/09/01 05:12:15;;;;;;;5.95;2.83;;;;;;;13.55;71.19;101939.69;5045599;28;20025;-84
2022/09/01 05:14:43;;;;;;;7.53;2.75;;;;;;;13.51;71.36;101943.50;5046983;28;20036;-85
2022/09/01 05:17:10;;;;;;;9.82;2.70;;;;;;;13.51;71.18;101943.50;5047660;28;20528;-85
2022/09/01 05:19:46;;;;;;;9.60;2.70;;;;;;;13.49;71.75;101948.03;5047200;28;20032;-85
2022/09/01 05:22:14;;;;;;;7.82;2.50;;;;;;;13.48;71.21;101938.41;5045197;28;20033;-84
2022/09/01 05:24:40;;;;;;;3.92;2.30;;;;;;;13.50;71.03;101947.09;5047917;28;20020;-84
2022/09/01 05:27:06;;;;;;;4.88;2.40;;;;;;;13.50;71.17;101939.16;5047735;28;20033;-85
2022/09/01 05:29:33;;;;;;;4.95;2.40;;;;;;;13.50;71.20;101941.78;5048430;28;20013;-84
2022/09/01 05:31:59;;;;;;;4.95;2.50;;;;;;;13.50;71.00;101947.09;5047184;28;20017;-84
2022/09/01 05:34:25;;;;;;;8.10;2.70;;;;;;;13.55;71.08;101944.97;5048333;28;20017;-86
2022/09/01 05:36:56;;;;;;;4.50;2.55;;;;;;;13.54;70.95;101943.28;5049085;28;20025;-85
2022/09/01 05:39:22;;;;;;;7.45;3.03;;;;;;;13.58;70.88;101941.25;5043521;28;20441;-85
2022/09/01 05:41:48;;;;;;;8.05;3.10;;;;;;;13.60;70.75;101948.13;5046831;28;20028;-85
2022/09/01 05:44:14;;;;;;;8.05;3.17;;;;;;;13.61;70.70;101944.56;5023908;28;20057;-85
2022/09/01 05:46:41;;;;;;;6.85;3.20;;;;;;;13.63;70.45;101947.94;5047816;28;20040;-85
2022/09/01 05:49:12;;;;;;;5.78;2.70;;;;;;;13.68;70.19;101942.34;5048067;28;20036;-84
2022/09/01 05:51:41;;;;;;;8.73;2.85;;;;;;;13.73;69.92;101946.34;5049634;28;20020;-84
2022/09/01 05:54:08;;;;;;;7.28;2.63;;;;;;;13.85;69.77;101946.44;5046852;28;20100;-85
2022/09/01 05:56:37;;;;;;;5.47;2.53;;;;;;;13.85;69.60;101951.72;5048152;28;20047;-85
2022/09/01 05:59:03;;;;;;;5.78;2.80;;;;;;;13.84;69.68;101948.25;5046810;28;20110;-80
2022/09/01 06:01:31;;;;;;;7.65;2.72;;;;;;;13.91;69.58;101954.78;5047656;28;20478;-89
2022/09/01 06:04:02;;;;;;;7.28;2.85;;;;;;;13.97;69.29;101953.50;5046544;28;20024;-87
2022/09/01 06:06:34;;;;;;;9.30;2.97;;;;;;;14.01;69.20;101952.38;5048670;28;20209;-87
2022/09/01 06:09:00;;;;;;;6.40;2.97;;;;;;;14.00;69.03;101946.19;5047337;28;20021;-86
2022/09/01 06:11:27;;;;;;;8.55;2.67;;;;;;;14.04;69.16;101960.94;5049386;28;20021;-86
2022/09/01 06:13:55;;;;;;;8.25;2.92;;;;;;;14.01;68.43;101957.66;5043606;28;20075;-88
2022/09/01 06:16:23;;;;;;;10.60;3.28;;;;;;;14.05;68.64;101961.78;5039611;28;20483;-87
2022/09/01 06:18:51;;;;;;;7.13;3.60;;;;;;;14.08;68.82;101965.06;5047011;28;20426;-86
2022/09/01 06:21:17;;;;;;;10.15;2.70;;;;;;;14.10;68.64;101954.34;5045224;28;20052;-87
2022/09/01 06:23:43;;;;;;;7.30;2.42;;;;;;;14.15;68.39;101960.16;5043186;28;20124;-85
2022/09/01 06:26:30;;;;;;;6.47;2.58;;;;;;;14.23;68.26;101957.81;5045687;28;20071;-86
2022/09/01 06:29:02;;;;;;;6.28;2.50;;;;;;;14.24;68.55;101954.19;5045920;28;20029;-86
2022/09/01 06:31:32;;;;;;;11.38;2.95;;;;;;;14.25;67.75;101955.91;5046642;28;20013;-86
2022/09/01 06:34:00;;;;;;;13.13;2.60;;;;;;;14.30;67.83;101958.22;5047437;28;20035;-87
2022/09/01 06:36:26;;;;;;;5.95;2.72;;;;;;;14.35;67.72;101951.63;5046363;28;20475;-86
2022/09/01 06:38:54;;;;;;;8.25;2.60;;;;;;;14.38;67.94;101959.34;5046533;28;20048;-85
2022/09/01 06:41:22;;;;;;;8.50;3.05;;;;;;;14.46;68.04;101963.28;5060173;28;20540;-79
2022/09/01 06:43:49;;;;;;;5.32;2.88;;;;;;;14.52;67.30;101962.84;5059143;28;20472;-79
2022/09/01 06:46:16;;;;;;;9.52;2.70;;;;;;;14.57;67.49;101958.91;5026178;28;20049;-87
2022/09/01 06:48:45;;;;;;;6.57;3.08;;;;;;;14.67;67.69;101961.72;5026263;28;20040;-86
2022/09/01 06:51:19;;;;;;;9.48;3.17;;;;;;;14.80;66.96;101962.50;5038827;28;20017;-86
2022/09/01 06:53:50;;;;;;;7.75;2.80;;;;;;;14.94;66.81;101959.69;5047890;28;20036;-86
2022/09/01 06:56:17;;;;;;;7.15;2.80;;;;;;;15.12;66.15;101959.25;5047592;28;20017;-86
2022/09/01 06:58:47;;;;;;;11.25;3.10;;;;;;;15.31;65.83;101972.84;5049052;28;20029;-86
2022/09/01 07:01:15;;;;;;;16.10;2.88;;;;;;;15.43;65.23;101971.88;5048883;28;20041;-85
2022/09/01 07:03:46;;;;;;;7.38;2.53;;;;;;;15.54;64.59;101969.25;5047609;28;20542;-87
2022/09/01 07:06:13;;;;;;;12.10;2.78;;;;;;;15.62;64.19;101969.56;5055444;28;20028;-85
2022/09/01 07:08:38;;;;;;;9.13;3.08;;;;;;;15.80;63.89;101969.09;5048547;28;20111;-79
2022/09/01 07:11:15;;;;;;;10.07;2.80;;;;;;;15.96;63.48;101972.22;5046324;28;20175;-87
2022/09/01 07:13:41;;;;;;;9.30;2.58;;;;;;;16.14;62.92;101972.59;5048194;28;20043;-87
2022/09/01 07:16:06;;;;;;;7.95;2.85;;;;;;;16.24;62.24;101974.38;5046359;28;20100;-86
2022/09/01 07:18:32;;;;;;;6.50;2.72;;;;;;;16.38;62.22;101975.91;5047247;28;20020;-86
2022/09/01 07:20:59;;;;;;;12.23;3.10;;;;;;;16.56;61.65;101971.78;5046807;28;20024;-85
2022/09/01 07:23:24;;;;;;;6.75;2.72;;;;;;;16.73;61.16;101981.06;5051391;28;20429;-87
2022/09/01 07:25:54;;;;;;;5.80;2.35;;;;;;;16.95;61.05;101977.50;5050549;28;20021;-87
2022/09/01 07:28:22;;;;;;;8.88;2.60;;;;;;;17.15;60.73;101981.16;5051346;28;20035;-85
2022/09/01 07:30:51;;;;;;;6.88;2.72;;;;;;;17.30;60.03;101974.56;5050914;28;20108;-85
2022/09/01 07:33:19;;;;;;;4.43;2.70;;;;;;;17.44;59.67;101982.22;5049482;28;20056;-86
2022/09/01 07:35:46;;;;;;;5.10;2.70;;;;;;;17.65;58.95;101966.25;5051145;28;20569;-85
2022/09/01 07:38:12;;;;;;;8.35;2.45;;;;;;;17.87;59.36;101975.06;5048438;28;20394;-85
2022/09/01 07:40:40;;;;;;;5.63;2.47;;;;;;;18.15;58.40;101972.50;5051384;28;20044;-79
2022/09/01 07:43:08;;;;;;;8.52;2.47;;;;;;;18.34;57.41;101965.53;5047177;28;20115;-86
2022/09/01 07:45:36;;;;;;;6.68;2.55;;;;;;;18.60;56.59;101968.56;5050249;28;20048;-79
2022/09/01 07:48:05;;;;;;;7.88;2.45;;;;;;;18.78;55.73;101965.09;5052198;28;20090;-85
2022/09/01 07:50:35;;;;;;;5.35;2.35;;;;;;;18.89;55.04;101968.63;5049392;28;20029;-84
2022/09/01 07:53:01;;;;;;;7.53;2.50;;;;;;;19.11;54.61;101981.66;5048646;28;20021;-85
2022/09/01 07:55:27;;;;;;;7.72;2.33;;;;;;;19.25;54.85;101972.41;5047803;28;20052;-85
2022/09/01 07:57:53;;;;;;;7.22;2.60;;;;;;;19.34;54.45;101971.53;5050547;28;20613;-85
2022/09/01 08:00:20;;;;;;;3.95;2.30;;;;;;;19.47;53.64;101968.56;5048446;28;20040;-86
2022/09/01 08:02:48;;;;;;;5.55;2.53;;;;;;;19.52;53.26;101972.47;5050701;28;20013;-86
2022/09/01 08:05:17;;;;;;;7.78;2.50;;;;;;;19.64;53.33;101962.50;5049199;28;20021;-85
2022/09/01 08:07:46;;;;;;;5.20;2.35;;;;;;;19.91;53.02;101970.56;5050133;28;20068;-85
2022/09/01 08:10:11;;;;;;;8.13;2.80;;;;;;;20.07;52.46;101964.59;5051804;28;20196;-85
2022/09/01 08:12:37;;;;;;;6.25;2.42;;;;;;;20.40;51.96;101957.81;5050882;28;20102;-85
2022/09/01 08:15:05;;;;;;;10.88;2.72;;;;;;;20.62;51.39;101960.06;5048164;28;20021;-85
2022/09/01 08:17:30;;;;;;;12.25;2.42;;;;;;;20.71;50.76;101958.31;5053025;28;20027;-85
2022/09/01 08:19:58;;;;;;;5.65;2.40;;;;;;;20.89;50.82;101966.34;5055824;28;20032;-86
2022/09/01 08:22:24;;;;;;;6.57;2.28;;;;;;;21.08;51.27;101960.81;5050298;28;20033;-84
2022/09/01 08:24:52;;;;;;;9.30;2.90;;;;;;;21.23;49.96;101970.03;5043803;28;20101;-86
2022/09/01 08:27:18;;;;;;;7.00;2.72;;;;;;;21.31;50.09;101971.09;5038468;28;20119;-85
2022/09/01 08:29:43;;;;;;;5.38;2.47;;;;;;;21.55;49.79;101965.88;5061180;28;20061;-86
2022/09/01 08:32:10;;;;;;;8.25;2.45;;;;;;;21.55;49.60;101969.41;5059422;28;20099;-85
2022/09/01 08:34:36;;;;;;;6.10;2.35;;;;;;;21.76;49.11;101962.84;5062984;28;20021;-84
2022/09/01 08:37:03;;;;;;;8.00;2.50;;;;;;;21.82;48.27;101955.00;5098615;28;20020;-85
2022/09/01 08:39:28;;;;;;;8.23;2.60;;;;;;;22.05;47.99;101955.31;5060806;28;20063;-84
2022/09/01 08:42:17;;;;;;;8.35;2.63;;;;;;;22.26;48.83;101964.75;5060298;28;20029;-85
2022/09/01 08:44:54;;;;;;;3.83;2.50;;;;;;;22.36;48.29;101963.59;5061938;28;20112;-85
2022/09/01 08:47:20;;;;;;;7.25;2.33;;;;;;;22.29;47.68;101961.75;5063556;28;20021;-86
2022/09/01 08:49:48;;;;;;;8.00;2.53;;;;;;;22.19;47.69;101962.72;5060852;28;20032;-85
2022/09/01 08:52:27;;;;;;;6.38;2.60;;;;;;;22.07;48.68;101972.06;5057625;28;20028;-85
2022/09/01 08:55:26;;;;;;;13.95;3.05;;;;;;;22.10;48.66;101968.22;5049959;28;20033;-84
2022/09/01 08:57:54;;;;;;;6.38;2.60;;;;;;;22.27;47.78;101967.28;5083879;28;20072;-84
2022/09/01 09:00:27;;;;;;;7.72;2.47;;;;;;;22.33;47.97;101963.09;5051494;28;20037;-84
2022/09/01 09:02:55;;;;;;;4.18;2.50;;;;;;;22.42;47.31;101964.81;5053506;28;20025;-83
2022/09/01 09:05:32;;;;;;;11.18;2.65;;;;;;;22.38;47.58;101961.59;5087959;28;20500;-85
2022/09/01 09:08:00;;;;;;;10.40;2.42;;;;;;;22.51;48.06;101948.59;5049421;28;20025;-83
2022/09/01 09:10:36;;;;;;;6.82;2.63;;;;;;;22.74;48.04;101948.78;5049610;28;20394;-85
2022/09/01 09:13:04;;;;;;;10.75;2.50;;;;;;;22.98;46.52;101948.00;5049582;28;20021;-85
2022/09/01 09:15:42;;;;;;;7.78;2.58;;;;;;;23.07;46.99;101946.97;5050688;28;20441;-86
2022/09/01 09:18:40;;;;;;;8.93;2.58;;;;;;;23.11;47.20;101942.94;5048796;28;20390;-85
2022/09/01 09:21:18;;;;;;;7.03;2.60;;;;;;;22.96;46.39;101939.25;5048652;28;20041;-86
2022/09/01 09:23:53;;;;;;;4.18;2.20;;;;;;;22.93;45.71;101942.28;5049154;28;20024;-86
2022/09/01 09:26:19;;;;;;;7.75;2.20;;;;;;;23.19;46.52;101939.41;5048325;28;20074;-86
2022/09/01 09:28:46;;;;;;;8.85;3.03;;;;;;;23.00;45.54;101939.75;5049733;28;20029;-86
2022/09/01 09:31:28;;;;;;;8.65;2.50;;;;;;;22.96;46.57;101936.59;5046498;28;20040;-86
2022/09/01 09:33:53;;;;;;;13.88;2.72;;;;;;;23.05;45.87;101932.88;5049070;28;20025;-85
2022/09/01 09:36:40;;;;;;;11.70;2.35;;;;;;;23.07;46.33;101930.03;5049472;28;20074;-85
2022/09/01 09:39:12;;;;;;;11.25;2.30;;;;;;;22.99;45.17;101930.03;5049282;28;20028;-85
2022/09/01 09:41:40;;;;;;;7.80;2.30;;;;;;;23.10;45.20;101933.22;5081455;28;20116;-86
2022/09/01 09:44:18;;;;;;;7.93;2.60;;;;;;;23.14;44.69;101926.50;5049124;28;20029;-85
2022/09/01 09:46:46;;;;;;;9.27;1.98;;;;;;;23.31;45.48;101913.06;5046758;28;20445;-80
2022/09/01 09:49:24;;;;;;;5.72;1.83;;;;;;;23.35;44.30;101925.13;5046554;28;20566;-81
2022/09/01 09:52:11;;;;;;;4.15;1.80;;;;;;;23.34;43.06;101915.41;5063341;28;20032;-80
2022/09/01 09:54:38;;;;;;;12.57;1.92;;;;;;;23.50;42.65;101911.81;5048269;28;20041;-85
2022/09/01 09:57:07;;;;;;;4.70;2.00;;;;;;;23.60;43.80;101909.81;5046325;28;20395;-86
2022/09/01 09:59:36;;;;;;;2.55;1.58;;;;;;;23.86;41.31;101906.88;5048072;28;20108;-85
2022/09/01 10:02:31;;;;;;;4.07;1.52;;;;;;;24.12;41.83;101903.91;5047906;28;20086;-86
2022/09/01 10:04:59;;;;;;;5.63;1.40;;;;;;;24.03;40.10;101900.41;5046898;28;20025;-85
2022/09/01 10:07:26;;;;;;;9.15;1.30;;;;;;;24.12;40.01;101912.81;5046601;28;20075;-85
2022/09/01 10:10:00;;;;;;;3.38;1.20;;;;;;;24.25;39.42;101906.84;5047623;28;20119;-83
2022/09/01 10:12:28;;;;;;;4.85;1.52;;;;;;;24.46;38.83;101901.69;5044255;28;20476;-84
2022/09/01 10:15:03;;;;;;;4.85;1.40;;;;;;;24.77;39.13;101904.31;5079067;28;20028;-84
2022/09/01 10:17:33;;;;;;;4.75;1.35;;;;;;;24.77;37.42;101904.31;5049982;28;20395;-85
2022/09/01 10:20:06;;;;;;;7.55;1.40;;;;;;;24.79;37.31;101896.88;5048092;28;20025;-84
2022/09/01 10:22:33;;;;;;;5.93;1.48;;;;;;;24.73;37.10;101891.38;5049737;28;20036;-85
2022/09/01 10:25:00;;;;;;;3.40;1.15;;;;;;;24.59;35.49;101896.56;5049149;28;20017;-85
2022/09/01 10:27:33;;;;;;;3.00;1.10;;;;;;;24.40;36.26;101893.47;5048268;28;20560;-84
2022/09/01 10:30:14;;;;;;;1.77;1.00;;;;;;;24.35;36.40;101891.34;5044406;28;20036;-85
2022/09/01 10:33:05;;;;;;;2.95;0.93;;;;;;;24.50;36.08;101894.09;5047297;28;20023;-85
2022/09/01 10:35:36;;;;;;;3.00;1.05;;;;;;;24.47;35.19;101881.00;5047426;28;20490;-87
2022/09/01 10:38:06;;;;;;;3.05;1.30;;;;;;;24.69;35.09;101891.75;5046448;28;20036;-85
2022/09/01 10:40:39;;;;;;;7.57;1.17;;;;;;;24.65;35.20;101906.59;5046752;28;20454;-86
2022/09/01 10:43:24;;;;;;;7.35;1.67;;;;;;;24.63;35.72;101907.78;5047969;28;20029;-85
2022/09/01 10:45:50;;;;;;;3.85;1.25;;;;;;;24.67;35.64;101903.72;5052207;28;20202;-85
2022/09/01 10:48:33;;;;;;;4.20;1.10;;;;;;;24.71;36.03;101894.25;5040010;28;20104;-85
2022/09/01 10:51:11;;;;;;;2.83;1.00;;;;;;;24.81;36.20;101884.06;5047798;28;20442;-85
2022/09/01 10:53:44;;;;;;;3.08;0.95;;;;;;;24.86;34.92;101887.09;5048158;28;20056;-86
2022/09/01 10:56:34;;;;;;;3.47;1.00;;;;;;;24.73;35.32;101897.63;5048664;28;20060;-85
2022/09/01 10:59:21;;;;;;;7.20;1.48;;;;;;;24.50;34.86;101892.25;5050187;28;20036;-86
2022/09/01 11:01:47;;;;;;;7.93;1.90;;;;;;;24.58;34.95;101891.34;5050009;28;20017;-86
2022/09/01 11:04:42;;;;;;;4.72;1.42;;;;;;;24.72;35.09;101890.56;5042466;28;20036;-85
2022/09/01 11:07:20;;;;;;;2.25;0.90;;;;;;;24.83;34.96;101884.75;5015220;28;20041;-84
2022/09/01 11:10:06;;;;;;;3.20;1.05;;;;;;;25.06;34.74;101889.28;5031473;28;20442;-85
2022/09/01 11:13:13;;;;;;;2.22;1.10;;;;;;;25.13;34.33;101887.53;5030666;28;20033;-85
2022/09/01 11:15:42;;;;;;;3.65;1.58;;;;;;;24.86;33.28;101879.00;5031568;28;20040;-86
2022/09/01 11:18:30;;;;;;;4.68;1.17;;;;;;;24.93;33.97;101879.94;5013731;28;20027;-88
2022/09/01 11:21:33;;;;;;;2.55;1.10;;;;;;;24.89;34.15;101880.50;5040990;28;20033;-86
2022/09/01 11:24:17;;;;;;;;;;;;;;;24.89;35.47;101880.50;5031797;28;20060;-86
2022/09/01 11:26:48;;;;;;;2.58;1.17;;;;;;;24.97;33.77;101878.56;5031530;28;20381;-87
2022/09/01 11:29:50;;;;;;;2.88;1.30;;;;;;;25.17;34.72;101878.06;5032010;28;20448;-84
2022/09/01 11:32:15;;;;;;;5.55;1.10;;;;;;;25.42;32.97;101855.22;5031861;28;20057;-85
2022/09/01 11:34:44;;;;;;;4.65;1.40;;;;;;;25.57;32.57;101864.13;5014557;28;20274;-84
2022/09/01 11:37:20;;;;;;;4.53;1.42;;;;;;;25.54;32.86;101858.28;5030950;28;20475;-86
2022/09/01 11:39:57;;;;;;;6.72;1.30;;;;;;;25.48;33.48;101862.56;5051141;28;20040;-85
2022/09/01 11:42:30;;;;;;;13.90;2.38;;;;;;;25.56;32.37;101846.28;5051069;28;20025;-85
2022/09/01 11:45:12;;;;;;;3.50;1.13;;;;;;;25.67;32.97;101852.28;5049929;28;20041;-85